createdAt,value
2017-11-16T00:01:50.102Z,27.50
2017-11-16T00:04:18.359Z,23.57
2017-11-16T00:06:46.621Z,22.30
2017-11-16T00:09:15.649Z,22.00
2017-11-16T00:11:43.914Z,25.43
2017-11-16T00:14:12.184Z,22.50
2017-11-16T00:16:40.443Z,24.03
2017-11-16T00:19:09.479Z,24.07
2017-11-16T00:21:37.753Z,23.67
2017-11-16T00:24:06.034Z,26.73
2017-11-16T00:26:34.289Z,24.90
2017-11-16T00:29:02.582Z,27.07
2017-11-16T00:31:31.581Z,29.70
2017-11-16T00:34:00.607Z,27.40
2017-11-16T00:36:28.867Z,29.30
2017-11-16T00:38:57.128Z,27.87
2017-11-16T00:41:25.409Z,26.97
2017-11-16T00:43:53.671Z,31.27
2017-11-16T00:46:21.941Z,30.23
2017-11-16T00:48:50.201Z,37.80
2017-11-16T00:51:18.480Z,31.27
2017-11-16T00:53:46.768Z,31.50
2017-11-16T00:56:15.023Z,30.77
2017-11-16T00:58:43.284Z,30.60
2017-11-16T01:01:12.318Z,31.67
2017-11-16T01:03:40.591Z,31.50
2017-11-16T01:06:08.860Z,32.67
2017-11-16T01:08:37.142Z,31.03
2017-11-16T01:11:05.414Z,32.10
2017-11-16T01:13:33.690Z,28.43
2017-11-16T01:16:01.937Z,27.97
2017-11-16T01:18:30.996Z,26.63
2017-11-16T01:20:59.247Z,25.70
2017-11-16T01:23:27.517Z,26.37
2017-11-16T01:25:55.780Z,26.43
2017-11-16T01:28:24.029Z,26.10
2017-11-16T01:30:53.053Z,25.60
2017-11-16T01:33:21.329Z,26.23
2017-11-16T01:35:49.592Z,24.07
2017-11-16T01:38:17.858Z,22.83
2017-11-16T01:40:46.118Z,23.80
2017-11-16T01:43:15.134Z,21.97
2017-11-16T01:45:43.386Z,22.20
2017-11-16T01:48:12.418Z,20.47
2017-11-16T01:50:40.690Z,22.73
2017-11-16T01:53:08.940Z,21.50
2017-11-16T01:55:38.007Z,20.30
2017-11-16T01:58:06.264Z,22.57
2017-11-16T02:00:34.525Z,21.47
2017-11-16T02:03:02.808Z,20.73
2017-11-16T02:05:31.082Z,21.80
2017-11-16T02:07:59.366Z,21.50
2017-11-16T02:10:27.621Z,21.83
2017-11-16T02:12:55.878Z,22.20
2017-11-16T02:15:24.136Z,24.20
2017-11-16T02:17:53.165Z,21.93
2017-11-16T02:20:21.418Z,25.57
2017-11-16T02:22:49.706Z,25.30
2017-11-16T02:25:17.974Z,23.80
2017-11-16T02:27:46.283Z,21.83
2017-11-16T02:30:14.548Z,23.20
2017-11-16T02:32:42.814Z,21.43
2017-11-16T02:35:11.103Z,21.97
2017-11-16T02:37:39.353Z,23.47
2017-11-16T02:40:07.637Z,23.40
2017-11-16T02:42:35.897Z,22.97
2017-11-16T02:45:04.925Z,24.97
2017-11-16T02:47:33.180Z,25.63
2017-11-16T02:50:01.451Z,24.93
2017-11-16T02:52:29.748Z,23.93
2017-11-16T02:54:58.023Z,24.03
2017-11-16T02:57:26.283Z,25.53
2017-11-16T02:59:54.744Z,24.60
2017-11-16T03:02:23.025Z,22.90
2017-11-16T03:04:51.294Z,23.90
2017-11-16T03:07:20.331Z,22.50
2017-11-16T03:09:48.604Z,21.20
2017-11-16T03:12:16.880Z,21.70
2017-11-16T03:14:45.154Z,23.33
2017-11-16T03:17:13.411Z,22.93
2017-11-16T03:19:41.672Z,25.33
2017-11-16T03:22:10.691Z,23.70
2017-11-16T03:24:38.972Z,22.67
2017-11-16T03:27:07.250Z,24.30
2017-11-16T03:29:35.536Z,24.90
2017-11-16T03:32:04.574Z,23.80
2017-11-16T03:34:33.619Z,23.93
2017-11-16T03:37:01.905Z,23.73
2017-11-16T03:39:30.159Z,24.23
2017-11-16T03:41:58.433Z,25.13
2017-11-16T03:44:26.700Z,22.90
2017-11-16T03:46:54.961Z,21.87
2017-11-16T03:49:24.004Z,23.77
2017-11-16T03:51:53.051Z,21.40
2017-11-16T03:54:21.315Z,22.30
2017-11-16T03:56:50.355Z,18.07
2017-11-16T03:59:18.615Z,20.90
2017-11-16T04:01:46.906Z,20.80
2017-11-16T04:04:15.169Z,19.63
2017-11-16T04:06:43.458Z,23.00
2017-11-16T04:09:11.717Z,19.30
2017-11-16T04:11:39.999Z,18.90
2017-11-16T04:14:08.257Z,19.50
2017-11-16T04:16:36.517Z,19.80
2017-11-16T04:19:05.545Z,16.57
2017-11-16T04:21:33.819Z,18.00
2017-11-16T04:24:02.085Z,18.73
2017-11-16T04:26:30.343Z,17.80
2017-11-16T04:28:59.396Z,18.40
2017-11-16T04:31:27.667Z,18.80
2017-11-16T04:33:55.953Z,20.10
2017-11-16T04:36:24.232Z,18.43
2017-11-16T04:38:52.496Z,21.87
2017-11-16T04:41:20.755Z,20.70
2017-11-16T04:43:49.042Z,21.40
2017-11-16T04:46:17.316Z,23.07
2017-11-16T04:48:45.567Z,23.53
2017-11-16T04:51:13.828Z,23.30
2017-11-16T04:53:42.105Z,22.57
2017-11-16T04:56:10.384Z,22.83
2017-11-16T04:58:38.648Z,22.30
2017-11-16T05:01:06.929Z,24.00
2017-11-16T05:03:35.204Z,21.70
2017-11-16T05:06:03.468Z,23.60
2017-11-16T05:08:31.732Z,24.00
2017-11-16T05:11:00.031Z,24.70
2017-11-16T05:13:29.059Z,21.83
2017-11-16T05:15:57.324Z,22.43
2017-11-16T05:18:25.591Z,19.33
2017-11-16T05:20:53.859Z,20.30
2017-11-16T05:23:22.151Z,18.60
2017-11-16T05:25:50.415Z,22.10
2017-11-16T05:28:18.689Z,19.70
2017-11-16T05:30:46.940Z,20.77
2017-11-16T05:33:15.989Z,18.80
2017-11-16T05:35:44.249Z,18.90
2017-11-16T05:38:12.528Z,17.90
2017-11-16T05:40:40.798Z,19.23
2017-11-16T05:43:09.102Z,17.40
2017-11-16T05:45:37.361Z,17.63
2017-11-16T05:48:05.636Z,19.63
2017-11-16T05:50:33.908Z,16.87
2017-11-16T05:53:02.187Z,23.60
2017-11-16T05:55:30.453Z,17.97
2017-11-16T05:57:58.716Z,19.80
2017-11-16T06:00:26.987Z,20.80
2017-11-16T06:02:55.245Z,19.27
2017-11-16T06:05:24.281Z,20.73
2017-11-16T06:07:52.541Z,19.93
2017-11-16T06:10:20.813Z,17.87
2017-11-16T06:12:49.079Z,19.27
2017-11-16T06:15:17.370Z,19.20
2017-11-16T06:17:45.631Z,17.95
2017-11-16T06:20:13.897Z,18.50
2017-11-16T06:22:42.920Z,18.80
2017-11-16T06:25:11.217Z,18.50
2017-11-16T06:27:39.493Z,18.50
2017-11-16T06:30:07.765Z,21.70
2017-11-16T06:32:36.044Z,19.17
2017-11-16T06:35:04.345Z,18.30
2017-11-16T06:37:32.617Z,18.77
2017-11-16T06:40:00.896Z,19.23
2017-11-16T06:42:29.162Z,17.73
2017-11-16T06:44:57.453Z,17.80
2017-11-16T06:47:25.728Z,18.10
2017-11-16T06:49:54.000Z,18.30
2017-11-16T06:52:22.263Z,20.20
2017-11-16T06:54:50.538Z,19.47
2017-11-16T06:57:18.792Z,20.00
2017-11-16T06:59:47.073Z,18.97
2017-11-16T07:02:15.333Z,19.63
2017-11-16T07:04:43.586Z,16.37
2017-11-16T07:07:11.993Z,15.63
2017-11-16T07:09:40.250Z,15.37
2017-11-16T07:12:08.532Z,14.30
2017-11-16T07:14:36.783Z,15.13
2017-11-16T07:17:05.804Z,15.50
2017-11-16T07:19:34.055Z,14.10
2017-11-16T07:22:03.128Z,15.00
2017-11-16T07:24:31.388Z,14.70
2017-11-16T07:26:59.641Z,13.50
2017-11-16T07:29:28.004Z,14.20
2017-11-16T07:31:56.269Z,14.10
2017-11-16T07:34:24.534Z,13.90
2017-11-16T07:36:53.575Z,13.53
2017-11-16T07:39:21.853Z,13.77
2017-11-16T07:41:50.132Z,12.73
2017-11-16T07:44:18.374Z,10.50
2017-11-16T07:46:46.644Z,11.03
2017-11-16T07:49:14.901Z,9.80
2017-11-16T07:51:43.933Z,10.13
2017-11-16T07:54:12.204Z,10.10
2017-11-16T07:56:40.464Z,12.07
2017-11-16T07:59:08.718Z,13.20
2017-11-16T08:01:37.752Z,11.37
2017-11-16T08:04:06.010Z,11.50
2017-11-16T08:06:34.282Z,13.03
2017-11-16T08:09:02.558Z,12.40
2017-11-16T08:11:30.816Z,12.40
2017-11-16T08:13:59.851Z,12.07
2017-11-16T08:16:28.115Z,12.70
2017-11-16T08:18:56.371Z,13.40
2017-11-16T08:21:24.628Z,15.37
2017-11-16T08:23:53.758Z,13.67
2017-11-16T08:26:22.022Z,13.83
2017-11-16T08:28:50.271Z,14.10
2017-11-16T08:31:19.304Z,13.13
2017-11-16T08:33:47.562Z,13.30
2017-11-16T08:36:16.575Z,13.87
2017-11-16T08:38:44.820Z,12.47
2017-11-16T08:41:13.078Z,13.93
2017-11-16T08:43:41.319Z,12.93
2017-11-16T08:46:09.567Z,15.70
2017-11-16T08:48:37.816Z,14.80
2017-11-16T08:51:06.828Z,12.83
2017-11-16T08:53:35.081Z,13.30
2017-11-16T08:56:03.314Z,15.70
2017-11-16T08:58:31.563Z,15.47
2017-11-16T09:00:59.828Z,13.63
2017-11-16T09:03:28.081Z,15.00
2017-11-16T09:05:57.093Z,14.83
2017-11-16T09:08:25.349Z,17.47
2017-11-16T09:10:54.368Z,17.20
2017-11-16T09:13:22.613Z,17.50
2017-11-16T09:15:51.630Z,16.33
2017-11-16T09:18:19.873Z,16.57
2017-11-16T09:20:48.119Z,15.20
2017-11-16T09:23:16.366Z,15.90
2017-11-16T09:25:44.608Z,17.10
2017-11-16T09:28:13.655Z,15.07
2017-11-16T09:30:41.924Z,15.43
2017-11-16T09:33:10.172Z,15.30
2017-11-16T09:35:38.436Z,14.00
2017-11-16T09:38:07.449Z,13.10
2017-11-16T09:40:35.694Z,11.53
2017-11-16T09:43:03.944Z,15.50
2017-11-16T09:45:32.188Z,13.57
2017-11-16T09:48:00.439Z,14.27
2017-11-16T09:50:29.446Z,16.37
2017-11-16T09:52:57.691Z,14.67
2017-11-16T09:55:26.703Z,17.00
2017-11-16T09:57:54.952Z,16.60
2017-11-16T10:00:24.698Z,16.70
2017-11-16T10:02:52.954Z,14.87
2017-11-16T10:05:21.970Z,15.93
2017-11-16T10:07:50.230Z,15.43
2017-11-16T10:10:18.480Z,14.97
2017-11-16T10:12:46.721Z,12.40
2017-11-16T10:15:14.982Z,16.60
2017-11-16T10:17:43.221Z,14.67
2017-11-16T10:20:12.232Z,14.23
2017-11-16T10:22:40.487Z,15.30
2017-11-16T10:25:09.503Z,16.70
2017-11-16T10:27:37.745Z,15.37
2017-11-16T10:30:06.054Z,14.77
2017-11-16T10:32:34.306Z,13.30
2017-11-16T10:35:03.319Z,13.80
2017-11-16T10:37:31.562Z,11.23
2017-11-16T10:39:59.807Z,13.37
2017-11-16T10:42:28.059Z,13.90
2017-11-16T10:44:56.311Z,13.13
2017-11-16T10:47:25.322Z,14.60
2017-11-16T10:49:53.825Z,11.87
2017-11-16T10:52:22.054Z,11.43
2017-11-16T10:54:51.084Z,13.23
2017-11-16T10:57:19.323Z,13.50
2017-11-16T10:59:48.338Z,15.17
2017-11-16T11:02:16.586Z,12.20
2017-11-16T11:04:45.601Z,12.90
2017-11-16T11:07:13.844Z,11.23
2017-11-16T11:09:42.092Z,12.53
2017-11-16T11:12:10.342Z,12.40
2017-11-16T11:14:38.582Z,12.97
2017-11-16T11:17:07.598Z,10.40
2017-11-16T11:19:35.867Z,11.70
2017-11-16T11:22:04.115Z,12.27
2017-11-16T11:24:32.355Z,12.70
2017-11-16T11:27:00.607Z,11.13
2017-11-16T11:29:28.847Z,10.33
2017-11-16T11:31:57.860Z,10.87
2017-11-16T11:34:26.867Z,11.33
2017-11-16T11:36:55.125Z,10.77
2017-11-16T11:39:24.134Z,10.57
2017-11-16T11:41:52.375Z,11.30
2017-11-16T11:44:21.386Z,11.60
2017-11-16T11:46:49.630Z,9.50
2017-11-16T11:49:17.872Z,10.90
2017-11-16T11:51:46.929Z,9.17
2017-11-16T11:54:15.938Z,9.90
2017-11-16T11:56:44.191Z,10.03
2017-11-16T11:59:13.196Z,10.40
2017-11-16T12:01:41.450Z,11.50
2017-11-16T12:04:10.466Z,10.67
2017-11-16T12:06:39.476Z,13.20
2017-11-16T12:09:07.719Z,13.10
2017-11-16T12:11:36.727Z,12.37
2017-11-16T12:14:04.967Z,10.80
2017-11-16T12:16:33.216Z,12.70
2017-11-16T12:19:02.222Z,13.17
2017-11-16T12:21:30.474Z,13.63
2017-11-16T12:23:58.718Z,11.20
2017-11-16T12:26:26.979Z,13.50
2017-11-16T12:28:55.288Z,14.17
2017-11-16T12:31:23.533Z,13.50
2017-11-16T12:33:52.540Z,13.50
2017-11-16T12:36:21.553Z,13.23
2017-11-16T12:38:49.795Z,13.20
2017-11-16T12:41:18.811Z,14.50
2017-11-16T12:43:47.063Z,13.93
2017-11-16T12:46:15.301Z,14.30
2017-11-16T12:48:44.338Z,12.50
2017-11-16T12:51:12.570Z,13.73
2017-11-16T12:53:40.818Z,15.03
2017-11-16T12:56:09.056Z,15.50
2017-11-16T12:58:38.080Z,15.07
2017-11-16T13:01:06.318Z,12.90
2017-11-16T13:03:34.563Z,12.30
2017-11-16T13:06:02.802Z,14.33
2017-11-16T13:08:31.054Z,14.07
2017-11-16T13:11:00.055Z,11.37
2017-11-16T13:13:29.072Z,13.80
2017-11-16T13:15:57.315Z,14.07
2017-11-16T13:18:26.331Z,14.40
2017-11-16T13:20:54.579Z,12.20
2017-11-16T13:23:23.590Z,13.20
2017-11-16T13:25:51.844Z,13.90
2017-11-16T13:28:20.090Z,13.00
2017-11-16T13:30:48.340Z,11.23
2017-11-16T13:33:16.579Z,14.50
2017-11-16T13:35:45.583Z,11.57
2017-11-16T13:38:13.832Z,12.77
2017-11-16T13:40:42.081Z,15.07
2017-11-16T13:43:10.332Z,16.50
2017-11-16T13:45:38.570Z,12.27
2017-11-16T13:48:07.602Z,13.50
2017-11-16T13:50:35.855Z,13.80
2017-11-16T13:53:04.855Z,14.70
2017-11-16T13:55:33.109Z,13.73
2017-11-16T13:58:02.111Z,11.30
2017-11-16T14:00:31.127Z,11.07
2017-11-16T14:02:59.372Z,11.97
2017-11-16T14:05:28.386Z,13.43
2017-11-16T14:07:56.639Z,12.67
2017-11-16T14:10:25.655Z,12.87
2017-11-16T14:12:53.915Z,14.03
2017-11-16T14:15:22.921Z,13.03
2017-11-16T14:17:51.165Z,13.10
2017-11-16T14:20:19.422Z,14.23
2017-11-16T14:22:47.672Z,13.60
2017-11-16T14:25:15.916Z,13.50
2017-11-16T14:27:44.167Z,12.97
2017-11-16T14:30:13.193Z,13.57
2017-11-16T14:32:41.442Z,13.30
2017-11-16T14:35:10.456Z,14.80
2017-11-16T14:37:38.703Z,15.60
2017-11-16T14:40:06.950Z,15.27
2017-11-16T14:42:35.201Z,13.63
2017-11-16T14:45:03.447Z,14.73
2017-11-16T14:47:32.470Z,13.30
2017-11-16T14:50:00.718Z,12.73
2017-11-16T14:52:29.722Z,13.67
2017-11-16T14:54:57.958Z,13.47
2017-11-16T14:57:26.232Z,13.63
2017-11-16T14:59:54.476Z,14.40
2017-11-16T15:02:22.731Z,14.60
2017-11-16T15:04:50.976Z,14.40
2017-11-16T15:07:19.985Z,15.63
2017-11-16T15:09:48.996Z,14.30
2017-11-16T15:12:17.248Z,13.50
2017-11-16T15:14:46.259Z,13.87
2017-11-16T15:17:14.498Z,14.47
2017-11-16T15:19:43.518Z,12.95
2017-11-16T15:22:11.766Z,14.07
2017-11-16T15:24:40.010Z,16.03
2017-11-16T15:27:08.259Z,13.47
2017-11-16T15:29:36.518Z,12.47
2017-11-16T15:32:04.762Z,14.35
2017-11-16T15:34:33.011Z,13.43
2017-11-16T15:37:01.267Z,10.93
2017-11-16T15:39:29.511Z,13.27
2017-11-16T15:41:58.527Z,14.10
2017-11-16T15:44:26.771Z,13.60
2017-11-16T15:46:55.780Z,13.30
2017-11-16T15:49:24.037Z,11.07
2017-11-16T15:51:53.047Z,12.03
2017-11-16T15:54:21.290Z,14.60
2017-11-16T15:56:49.567Z,13.77
2017-11-16T15:59:17.799Z,14.53
2017-11-16T16:01:46.599Z,13.63
2017-11-16T16:04:14.856Z,13.67
2017-11-16T16:06:43.094Z,13.30
2017-11-16T16:09:12.108Z,12.57
2017-11-16T16:11:40.367Z,11.90
2017-11-16T16:14:09.386Z,11.77
2017-11-16T16:16:37.628Z,11.23
2017-11-16T16:19:06.668Z,13.33
2017-11-16T16:21:34.913Z,11.43
2017-11-16T16:24:03.948Z,11.33
2017-11-16T16:26:32.186Z,11.13
2017-11-16T16:29:00.428Z,9.97
2017-11-16T16:31:28.676Z,10.10
2017-11-16T16:33:56.923Z,9.57
2017-11-16T16:36:25.168Z,9.27
2017-11-16T16:38:54.172Z,9.57
2017-11-16T16:41:23.180Z,9.67
2017-11-16T16:43:51.423Z,8.70
2017-11-16T16:46:19.663Z,9.40
2017-11-16T16:48:47.903Z,7.37
2017-11-16T16:51:16.158Z,8.37
2017-11-16T16:53:45.173Z,8.50
2017-11-16T16:56:13.411Z,7.40
2017-11-16T16:58:41.648Z,7.43
2017-11-16T17:01:09.883Z,8.90
2017-11-16T17:03:38.905Z,7.23
2017-11-16T17:06:07.133Z,8.23
2017-11-16T17:08:35.375Z,7.00
2017-11-16T17:11:04.395Z,7.90
2017-11-16T17:13:32.624Z,8.70
2017-11-16T17:16:00.872Z,8.60
2017-11-16T17:18:29.882Z,8.07
2017-11-16T17:20:58.130Z,8.63
2017-11-16T17:23:27.151Z,7.87
2017-11-16T17:25:55.394Z,7.87
2017-11-16T17:28:24.402Z,8.73
2017-11-16T17:30:52.654Z,7.30
2017-11-16T17:33:20.893Z,8.33
2017-11-16T17:35:49.136Z,7.97
2017-11-16T17:38:17.380Z,6.53
2017-11-16T17:40:45.624Z,7.50
2017-11-16T17:43:13.861Z,8.00
2017-11-16T17:45:42.125Z,7.90
2017-11-16T17:48:11.131Z,8.20
2017-11-16T17:50:39.366Z,9.20
2017-11-16T17:53:07.620Z,10.17
2017-11-16T17:55:35.850Z,9.13
2017-11-16T17:58:04.122Z,9.03
2017-11-16T18:00:32.363Z,9.17
2017-11-16T18:03:00.603Z,7.87
2017-11-16T18:05:28.844Z,5.80
2017-11-16T18:07:57.853Z,7.37
2017-11-16T18:10:26.094Z,7.13
2017-11-16T18:12:55.111Z,6.70
2017-11-16T18:15:23.356Z,6.25
2017-11-16T18:17:51.607Z,5.97
2017-11-16T18:20:19.856Z,7.47
2017-11-16T18:22:48.087Z,6.43
2017-11-16T18:25:17.107Z,5.62
2017-11-16T18:27:45.343Z,9.30
2017-11-16T18:30:13.595Z,5.78
2017-11-16T18:32:41.840Z,5.77
2017-11-16T18:35:10.090Z,8.43
2017-11-16T18:37:39.090Z,8.52
2017-11-16T18:40:08.108Z,6.90
2017-11-16T18:42:36.356Z,6.77
2017-11-16T18:45:05.367Z,8.93
2017-11-16T18:47:33.615Z,5.33
2017-11-16T18:50:02.657Z,8.67
2017-11-16T18:52:30.898Z,8.77
2017-11-16T18:54:59.135Z,8.33
2017-11-16T18:57:27.378Z,6.10
2017-11-16T18:59:55.612Z,8.40
2017-11-16T19:02:24.622Z,9.00
2017-11-16T19:04:52.873Z,9.10
2017-11-16T19:07:21.118Z,9.10
2017-11-16T19:09:49.368Z,9.53
2017-11-16T19:12:17.619Z,8.35
2017-11-16T19:14:46.629Z,10.00
2017-11-16T19:17:14.891Z,10.60
2017-11-16T19:19:43.889Z,9.70
2017-11-16T19:22:12.131Z,8.50
2017-11-16T19:24:41.141Z,9.43
2017-11-16T19:27:10.151Z,8.87
2017-11-16T19:29:38.400Z,8.93
2017-11-16T19:32:07.414Z,11.00
2017-11-16T19:34:35.669Z,8.95
2017-11-16T19:37:04.684Z,12.60
2017-11-16T19:39:32.925Z,9.07
2017-11-16T19:42:01.164Z,10.60
2017-11-16T19:44:29.414Z,11.00
2017-11-16T19:46:57.660Z,9.98
2017-11-16T19:49:26.673Z,8.90
2017-11-16T19:51:54.927Z,10.50
2017-11-16T19:54:23.944Z,9.32
2017-11-16T19:56:52.203Z,11.17
2017-11-16T19:59:21.214Z,12.30
2017-11-16T20:01:49.470Z,12.60
2017-11-16T20:04:18.484Z,14.20
2017-11-16T20:06:46.740Z,13.68
2017-11-16T20:09:15.741Z,12.95
2017-11-16T20:11:43.999Z,15.10
2017-11-16T20:14:13.018Z,8.17
2017-11-16T20:16:41.287Z,10.30
2017-11-16T20:19:09.551Z,13.10
2017-11-16T20:21:38.560Z,8.88
2017-11-16T20:24:06.950Z,15.55
2017-11-16T20:26:35.243Z,14.27
2017-11-16T20:29:03.529Z,8.73
2017-11-16T20:31:31.805Z,11.20
2017-11-16T20:34:00.077Z,16.95
2017-11-16T20:36:28.336Z,14.43
2017-11-16T20:38:57.453Z,15.93
2017-11-16T20:41:30.627Z,10.23
2017-11-16T20:47:18.293Z,15.10
2017-11-16T20:52:52.138Z,17.30
2017-11-16T20:55:20.375Z,21.58
2017-11-16T20:57:48.619Z,17.17
2017-11-16T21:00:17.639Z,17.48
2017-11-16T21:02:45.883Z,16.83
2017-11-16T21:05:14.898Z,17.10
2017-11-16T21:07:43.147Z,13.30
2017-11-16T21:10:12.164Z,10.32
2017-11-16T21:12:40.460Z,15.10
2017-11-16T21:15:08.720Z,14.07
2017-11-16T21:17:37.042Z,13.55
2017-11-16T21:20:05.307Z,17.70
2017-11-16T21:22:33.560Z,18.42
2017-11-16T21:25:01.816Z,11.48
2017-11-16T21:27:30.089Z,17.75
2017-11-16T21:29:58.372Z,15.90
2017-11-16T21:32:26.674Z,16.20
2017-11-16T21:34:54.911Z,16.15
2017-11-16T21:37:23.935Z,17.55
2017-11-16T21:39:52.195Z,18.30
2017-11-16T21:42:20.518Z,18.73
2017-11-16T21:44:48.778Z,16.65
2017-11-16T21:47:17.031Z,12.50
2017-11-16T21:49:45.273Z,16.52
2017-11-16T21:52:14.304Z,16.77
2017-11-16T21:54:42.556Z,16.50
2017-11-16T21:57:11.570Z,10.07
2017-11-16T21:59:39.810Z,10.63
2017-11-16T22:02:08.823Z,15.32
2017-11-16T22:04:37.075Z,15.10
2017-11-16T22:07:06.090Z,15.25
2017-11-16T22:09:34.342Z,16.90
2017-11-16T22:12:03.360Z,18.00
2017-11-16T22:14:31.615Z,15.47
2017-11-16T22:17:00.642Z,16.15
2017-11-16T22:19:28.893Z,18.55
2017-11-16T22:21:57.153Z,18.90
2017-11-16T22:24:25.394Z,19.30
2017-11-16T22:26:53.650Z,9.90
2017-11-16T22:29:21.906Z,14.52
2017-11-16T22:31:50.155Z,15.35
2017-11-16T22:34:19.173Z,17.17
2017-11-16T22:36:47.447Z,17.00
2017-11-16T22:39:15.695Z,17.70
2017-11-16T22:41:44.706Z,17.17
2017-11-16T22:44:12.964Z,15.02
2017-11-16T22:46:41.980Z,19.20
2017-11-16T22:49:11.000Z,14.50
2017-11-16T22:51:39.239Z,15.60
2017-11-16T22:54:08.268Z,18.53
2017-11-16T22:56:36.516Z,19.70
2017-11-16T22:59:05.525Z,21.00
2017-11-16T23:01:33.785Z,13.70
2017-11-16T23:04:02.041Z,19.58
2017-11-16T23:06:31.050Z,15.43
2017-11-16T23:08:59.387Z,11.40
2017-11-16T23:11:27.783Z,20.25
2017-11-16T23:13:56.069Z,22.35
2017-11-16T23:16:25.111Z,17.12
2017-11-16T23:18:53.388Z,16.62
2017-11-16T23:21:21.645Z,18.87
2017-11-16T23:23:49.911Z,15.63
2017-11-16T23:26:18.184Z,17.23
2017-11-16T23:28:47.217Z,14.37
2017-11-16T23:31:15.491Z,20.02
2017-11-16T23:33:43.773Z,11.30
2017-11-16T23:36:12.040Z,16.58
2017-11-16T23:38:40.309Z,18.33
2017-11-16T23:41:08.589Z,25.37
2017-11-16T23:43:36.847Z,23.15
2017-11-16T23:46:05.113Z,22.40
2017-11-16T23:48:33.374Z,25.27
2017-11-16T23:51:02.432Z,24.70
2017-11-16T23:53:31.457Z,20.20
2017-11-16T23:56:00.494Z,21.73
2017-11-16T23:58:28.768Z,20.80
